sensor_id;sensor_type;location;lat;lon;timestamp;pressure;altitude;pressure_sealevel;temperature
62932;BMP280;49037;41.898;25.004;2022-11-30T00:00:18;96630.69;;;5.82
62932;BMP280;49037;41.898;25.004;2022-11-30T00:02:44;96620.63;;;5.69
62932;BMP280;49037;41.898;25.004;2022-11-30T00:05:10;96624.03;;;5.70
62932;BMP280;49037;41.898;25.004;2022-11-30T00:07:36;96633.41;;;5.71
62932;BMP280;49037;41.898;25.004;2022-11-30T00:10:03;96625.22;;;5.69
62932;BMP280;49037;41.898;25.004;2022-11-30T00:12:29;96628.13;;;5.71
62932;BMP280;49037;41.898;25.004;2022-11-30T00:14:54;96628.34;;;5.73
62932;BMP280;49037;41.898;25.004;2022-11-30T00:17:20;96627.41;;;5.65
62932;BMP280;49037;41.898;25.004;2022-11-30T00:19:45;96632.22;;;5.66
62932;BMP280;49037;41.898;25.004;2022-11-30T00:22:11;96627.41;;;5.65
62932;BMP280;49037;41.898;25.004;2022-11-30T00:24:37;96629.56;;;5.66
62932;BMP280;49037;41.898;25.004;2022-11-30T00:27:02;96616.56;;;5.63
62932;BMP280;49037;41.898;25.004;2022-11-30T00:29:28;96627.88;;;5.69
62932;BMP280;49037;41.898;25.004;2022-11-30T00:31:53;96629.06;;;5.68
62932;BMP280;49037;41.898;25.004;2022-11-30T00:34:19;96627.63;;;5.67
62932;BMP280;49037;41.898;25.004;2022-11-30T00:36:44;96627.88;;;5.69
62932;BMP280;49037;41.898;25.004;2022-11-30T00:39:10;96622.56;;;5.69
62932;BMP280;49037;41.898;25.004;2022-11-30T00:41:35;96623.53;;;5.71
62932;BMP280;49037;41.898;25.004;2022-11-30T00:44:01;96611.25;;;5.74
62932;BMP280;49037;41.898;25.004;2022-11-30T00:46:26;96612.00;;;5.63
62932;BMP280;49037;41.898;25.004;2022-11-30T00:48:51;96623.53;;;5.71
62932;BMP280;49037;41.898;25.004;2022-11-30T00:51:17;96620.91;;;5.66
62932;BMP280;49037;41.898;25.004;2022-11-30T00:53:43;96628.84;;;5.66
62932;BMP280;49037;41.898;25.004;2022-11-30T00:56:10;96625.47;;;5.71
62932;BMP280;49037;41.898;25.004;2022-11-30T00:58:36;96613.91;;;5.63
62932;BMP280;49037;41.898;25.004;2022-11-30T01:01:01;96631.00;;;5.67
62932;BMP280;49037;41.898;25.004;2022-11-30T01:03:27;96624.50;;;5.68
62932;BMP280;49037;41.898;25.004;2022-11-30T01:05:52;96624.25;;;5.66
62932;BMP280;49037;41.898;25.004;2022-11-30T01:08:18;96621.84;;;5.63
62932;BMP280;49037;41.898;25.004;2022-11-30T01:10:43;96617.50;;;5.65
62932;BMP280;49037;41.898;25.004;2022-11-30T01:13:11;96621.38;;;5.70
62932;BMP280;49037;41.898;25.004;2022-11-30T01:15:43;96612.69;;;5.69
62932;BMP280;49037;41.898;25.004;2022-11-30T01:18:09;96623.25;;;5.75
62932;BMP280;49037;41.898;25.004;2022-11-30T01:20:38;96619.19;;;5.74
62932;BMP280;49037;41.898;25.004;2022-11-30T01:23:04;96619.13;;;5.79
62932;BMP280;49037;41.898;25.004;2022-11-30T01:25:29;96619.88;;;5.80
62932;BMP280;49037;41.898;25.004;2022-11-30T01:27:55;96617.25;;;5.74
62932;BMP280;49037;41.898;25.004;2022-11-30T01:30:20;96632.16;;;5.77
62932;BMP280;49037;41.898;25.004;2022-11-30T01:32:46;96621.84;;;5.74
62932;BMP280;49037;41.898;25.004;2022-11-30T01:35:11;96626.63;;;5.75
62932;BMP280;49037;41.898;25.004;2022-11-30T01:37:37;96611.00;;;5.72
62932;BMP280;49037;41.898;25.004;2022-11-30T01:40:03;96611.47;;;5.70
62932;BMP280;49037;41.898;25.004;2022-11-30T01:42:28;96622.81;;;5.71
62932;BMP280;49037;41.898;25.004;2022-11-30T01:45:01;96619.91;;;5.69
62932;BMP280;49037;41.898;25.004;2022-11-30T01:47:39;96623.53;;;5.66
62932;BMP280;49037;41.898;25.004;2022-11-30T01:50:20;96624.03;;;5.70
62932;BMP280;49037;41.898;25.004;2022-11-30T01:52:53;96613.66;;;5.66
62932;BMP280;49037;41.898;25.004;2022-11-30T02:00:20;96623.28;;;5.69
62932;BMP280;49037;41.898;25.004;2022-11-30T02:03:07;96619.22;;;5.68
62932;BMP280;49037;41.898;25.004;2022-11-30T02:05:37;96612.22;;;5.71
62932;BMP280;49037;41.898;25.004;2022-11-30T02:08:05;96614.63;;;5.69
62932;BMP280;49037;41.898;25.004;2022-11-30T02:10:33;96613.91;;;5.68
62932;BMP280;49037;41.898;25.004;2022-11-30T02:29:26;96630.47;;;5.80
62932;BMP280;49037;41.898;25.004;2022-11-30T02:32:11;96621.28;;;5.81
62932;BMP280;49037;41.898;25.004;2022-11-30T02:34:40;96628.53;;;5.80
62932;BMP280;49037;41.898;25.004;2022-11-30T02:37:08;96623.72;;;5.79
62932;BMP280;49037;41.898;25.004;2022-11-30T02:39:35;96630.50;;;5.69
62932;BMP280;49037;41.898;25.004;2022-11-30T02:42:00;96626.41;;;5.68
62932;BMP280;49037;41.898;25.004;2022-11-30T02:44:27;96626.66;;;5.70
62932;BMP280;49037;41.898;25.004;2022-11-30T02:52:05;96642.00;;;5.88
62932;BMP280;49037;41.898;25.004;2022-11-30T02:54:33;96635.00;;;5.90
62932;BMP280;49037;41.898;25.004;2022-11-30T02:56:58;96628.97;;;5.90
62932;BMP280;49037;41.898;25.004;2022-11-30T02:59:24;96634.28;;;5.90
62932;BMP280;49037;41.898;25.004;2022-11-30T03:01:49;96634.28;;;5.90
62932;BMP280;49037;41.898;25.004;2022-11-30T03:04:15;96641.00;;;5.91
62932;BMP280;49037;41.898;25.004;2022-11-30T03:06:40;96645.06;;;5.97
62932;BMP280;49037;41.898;25.004;2022-11-30T03:09:06;96636.72;;;5.88
62932;BMP280;49037;41.898;25.004;2022-11-30T03:11:32;96647.03;;;5.91
62932;BMP280;49037;41.898;25.004;2022-11-30T03:13:58;96644.88;;;5.90
62932;BMP280;49037;41.898;25.004;2022-11-30T03:16:23;96641.28;;;5.82
62932;BMP280;49037;41.898;25.004;2022-11-30T03:18:49;96652.84;;;5.84
62932;BMP280;49037;41.898;25.004;2022-11-30T03:21:14;96648.28;;;5.85
62932;BMP280;49037;41.898;25.004;2022-11-30T03:23:40;96642.03;;;5.82
62932;BMP280;49037;41.898;25.004;2022-11-30T03:26:06;96650.66;;;5.94
62932;BMP280;49037;41.898;25.004;2022-11-30T03:28:33;96646.78;;;5.95
62932;BMP280;49037;41.898;25.004;2022-11-30T03:30:59;96640.75;;;5.94
62932;BMP280;49037;41.898;25.004;2022-11-30T03:33:24;96650.19;;;5.84
62932;BMP280;49037;41.898;25.004;2022-11-30T03:36:05;96641.81;;;5.75
62932;BMP280;49037;41.898;25.004;2022-11-30T03:38:31;96644.94;;;5.79
62932;BMP280;49037;41.898;25.004;2022-11-30T03:41:13;96647.34;;;5.82
62932;BMP280;49037;41.898;25.004;2022-11-30T03:43:41;96649.25;;;5.87
62932;BMP280;49037;41.898;25.004;2022-11-30T03:46:07;96643.94;;;5.87
62932;BMP280;49037;41.898;25.004;2022-11-30T03:48:32;96655.47;;;5.90
62932;BMP280;49037;41.898;25.004;2022-11-30T03:51:00;96660.03;;;5.95
62932;BMP280;49037;41.898;25.004;2022-11-30T03:53:26;96650.16;;;5.95
62932;BMP280;49037;41.898;25.004;2022-11-30T03:55:54;96652.81;;;5.95
62932;BMP280;49037;41.898;25.004;2022-11-30T03:58:20;96657.31;;;6.06
62932;BMP280;49037;41.898;25.004;2022-11-30T04:00:46;96664.78;;;6.07
62932;BMP280;49037;41.898;25.004;2022-11-30T04:03:11;96668.41;;;6.10
62932;BMP280;49037;41.898;25.004;2022-11-30T04:05:37;96672.00;;;6.12
62932;BMP280;49037;41.898;25.004;2022-11-30T04:08:03;96667.44;;;6.13
62932;BMP280;49037;41.898;25.004;2022-11-30T04:10:28;96663.16;;;5.99
62932;BMP280;49037;41.898;25.004;2022-11-30T04:12:53;96668.19;;;6.02
62932;BMP280;49037;41.898;25.004;2022-11-30T04:15:19;96672.53;;;6.00
62932;BMP280;49037;41.898;25.004;2022-11-30T04:17:44;96677.34;;;6.07
62932;BMP280;49037;41.898;25.004;2022-11-30T04:20:10;96675.63;;;6.04
62932;BMP280;49037;41.898;25.004;2022-11-30T04:22:36;96675.44;;;6.02
62932;BMP280;49037;41.898;25.004;2022-11-30T04:25:01;96673.75;;;5.93
62932;BMP280;49037;41.898;25.004;2022-11-30T04:27:27;96671.13;;;5.99
62932;BMP280;49037;41.898;25.004;2022-11-30T04:29:53;96671.84;;;5.99
62932;BMP280;49037;41.898;25.004;2022-11-30T04:32:18;96671.13;;;5.99
62932;BMP280;49037;41.898;25.004;2022-11-30T04:34:44;96666.78;;;5.96
62932;BMP280;49037;41.898;25.004;2022-11-30T04:37:09;96677.63;;;5.98
62932;BMP280;49037;41.898;25.004;2022-11-30T04:39:34;96667.06;;;5.81
62932;BMP280;49037;41.898;25.004;2022-11-30T04:42:00;96676.00;;;5.84
62932;BMP280;49037;41.898;25.004;2022-11-30T04:44:26;96676.22;;;5.86
62932;BMP280;49037;41.898;25.004;2022-11-30T04:46:51;96675.69;;;5.93
62932;BMP280;49037;41.898;25.004;2022-11-30T04:49:17;96675.25;;;5.89
62932;BMP280;49037;41.898;25.004;2022-11-30T04:51:42;96674.25;;;5.92
62932;BMP280;49037;41.898;25.004;2022-11-30T04:54:08;96671.88;;;5.88
62932;BMP280;49037;41.898;25.004;2022-11-30T04:56:33;96675.25;;;5.89
62932;BMP280;49037;41.898;25.004;2022-11-30T04:59:02;96665.09;;;5.93
62932;BMP280;49037;41.898;25.004;2022-11-30T05:01:27;96666.28;;;5.97
62932;BMP280;49037;41.898;25.004;2022-11-30T05:03:53;96670.16;;;5.96
62932;BMP280;49037;41.898;25.004;2022-11-30T05:06:19;96678.34;;;5.93
62932;BMP280;49037;41.898;25.004;2022-11-30T05:08:44;96679.56;;;5.92
62932;BMP280;49037;41.898;25.004;2022-11-30T05:11:09;96687.97;;;5.96
62932;BMP280;49037;41.898;25.004;2022-11-30T05:13:35;96683.41;;;5.91
62932;BMP280;49037;41.898;25.004;2022-11-30T05:16:00;96694.00;;;5.91
62932;BMP280;49037;41.898;25.004;2022-11-30T05:18:26;96692.84;;;5.86
62932;BMP280;49037;41.898;25.004;2022-11-30T05:20:53;96690.94;;;5.81
62932;BMP280;49037;41.898;25.004;2022-11-30T05:23:19;96695.00;;;5.77
62932;BMP280;49037;41.898;25.004;2022-11-30T05:25:45;96695.53;;;5.70
62932;BMP280;49037;41.898;25.004;2022-11-30T05:28:11;96701.31;;;5.74
62932;BMP280;49037;41.898;25.004;2022-11-30T05:30:38;96698.19;;;5.70
62932;BMP280;49037;41.898;25.004;2022-11-30T05:33:04;96694.09;;;5.69
62932;BMP280;49037;41.898;25.004;2022-11-30T05:35:30;96686.13;;;5.74
62932;BMP280;49037;41.898;25.004;2022-11-30T05:37:55;96690.91;;;5.87
62932;BMP280;49037;41.898;25.004;2022-11-30T05:40:21;96700.03;;;5.91
62932;BMP280;49037;41.898;25.004;2022-11-30T05:42:46;96698.34;;;5.94
62932;BMP280;49037;41.898;25.004;2022-11-30T05:45:12;96701.00;;;5.94
62932;BMP280;49037;41.898;25.004;2022-11-30T05:47:37;96711.81;;;5.96
62932;BMP280;49037;41.898;25.004;2022-11-30T05:50:04;96703.19;;;5.90
62932;BMP280;49037;41.898;25.004;2022-11-30T05:52:29;96711.31;;;6.03
62932;BMP280;49037;41.898;25.004;2022-11-30T05:54:55;96716.63;;;6.03
62932;BMP280;49037;41.898;25.004;2022-11-30T05:57:20;96710.88;;;5.99
62932;BMP280;49037;41.898;25.004;2022-11-30T05:59:46;96711.09;;;6.01
62932;BMP280;49037;41.898;25.004;2022-11-30T06:02:11;96722.44;;;6.01
62932;BMP280;49037;41.898;25.004;2022-11-30T06:04:37;96727.69;;;6.07
62932;BMP280;49037;41.898;25.004;2022-11-30T06:07:02;96721.91;;;6.08
62932;BMP280;49037;41.898;25.004;2022-11-30T06:09:28;96725.53;;;6.05
62932;BMP280;49037;41.898;25.004;2022-11-30T06:11:54;96726.72;;;6.04
62932;BMP280;49037;41.898;25.004;2022-11-30T06:14:19;96735.66;;;6.07
62932;BMP280;49037;41.898;25.004;2022-11-30T06:16:45;96730.84;;;6.05
62932;BMP280;49037;41.898;25.004;2022-11-30T06:19:10;96735.41;;;6.05
62932;BMP280;49037;41.898;25.004;2022-11-30T06:21:36;96734.91;;;6.12
62932;BMP280;49037;41.898;25.004;2022-11-30T06:24:01;96724.03;;;6.15
62932;BMP280;49037;41.898;25.004;2022-11-30T06:26:27;96731.97;;;6.20
62932;BMP280;49037;41.898;25.004;2022-11-30T06:28:52;96736.59;;;6.14
62932;BMP280;49037;41.898;25.004;2022-11-30T06:31:18;96734.44;;;6.08
62932;BMP280;49037;41.898;25.004;2022-11-30T06:33:43;96747.19;;;6.14
62932;BMP280;49037;41.898;25.004;2022-11-30T06:36:09;96742.59;;;6.20
62932;BMP280;49037;41.898;25.004;2022-11-30T06:38:34;96743.06;;;6.24
62932;BMP280;49037;41.898;25.004;2022-11-30T06:41:04;96735.81;;;6.25
62932;BMP280;49037;41.898;25.004;2022-11-30T06:43:37;96737.28;;;6.20
62932;BMP280;49037;41.898;25.004;2022-11-30T06:46:05;96742.81;;;6.22
62932;BMP280;49037;41.898;25.004;2022-11-30T06:48:31;96738.94;;;6.23
62932;BMP280;49037;41.898;25.004;2022-11-30T06:50:57;96742.13;;;6.16
62932;BMP280;49037;41.898;25.004;2022-11-30T06:53:23;96745.03;;;6.13
62932;BMP280;49037;41.898;25.004;2022-11-30T06:55:49;96743.59;;;6.07
62932;BMP280;49037;41.898;25.004;2022-11-30T06:58:14;96752.31;;;6.02
62932;BMP280;49037;41.898;25.004;2022-11-30T07:00:40;96745.06;;;5.97
62932;BMP280;49037;41.898;25.004;2022-11-30T07:03:06;96755.69;;;5.97
62932;BMP280;49037;41.898;25.004;2022-11-30T07:05:39;96762.41;;;6.03
62932;BMP280;49037;41.898;25.004;2022-11-30T07:08:05;96754.97;;;6.02
62932;BMP280;49037;41.898;25.004;2022-11-30T07:10:31;96761.69;;;6.03
62932;BMP280;49037;41.898;25.004;2022-11-30T07:12:56;96760.25;;;6.02
62932;BMP280;49037;41.898;25.004;2022-11-30T07:15:22;96752.78;;;6.00
62932;BMP280;49037;41.898;25.004;2022-11-30T07:17:47;96761.44;;;6.12
62932;BMP280;49037;41.898;25.004;2022-11-30T07:20:13;96769.38;;;6.06
62932;BMP280;49037;41.898;25.004;2022-11-30T07:22:38;96756.38;;;6.08
62932;BMP280;49037;41.898;25.004;2022-11-30T07:25:04;96758.53;;;6.10
62932;BMP280;49037;41.898;25.004;2022-11-30T07:27:48;96756.59;;;6.15
62932;BMP280;49037;41.898;25.004;2022-11-30T07:30:14;96748.38;;;6.19
62932;BMP280;49037;41.898;25.004;2022-11-30T07:32:39;96756.81;;;6.23
62932;BMP280;49037;41.898;25.004;2022-11-30T07:35:05;96755.09;;;6.25
62932;BMP280;49037;41.898;25.004;2022-11-30T07:37:33;96760.41;;;6.25
62932;BMP280;49037;41.898;25.004;2022-11-30T07:39:58;96744.03;;;6.21
62932;BMP280;49037;41.898;25.004;2022-11-30T07:42:24;96753.63;;;6.30
62932;BMP280;49037;41.898;25.004;2022-11-30T07:44:49;96754.63;;;6.27
62932;BMP280;49037;41.898;25.004;2022-11-30T07:47:15;96752.22;;;6.23
62932;BMP280;49037;41.898;25.004;2022-11-30T07:49:41;96767.38;;;6.28
62932;BMP280;49037;41.898;25.004;2022-11-30T07:52:06;96758.97;;;6.24
62932;BMP280;49037;41.898;25.004;2022-11-30T07:54:33;96765.00;;;6.19
62932;BMP280;49037;41.898;25.004;2022-11-30T07:56:58;96757.31;;;6.11
62932;BMP280;49037;41.898;25.004;2022-11-30T07:59:24;96758.09;;;6.00
62932;BMP280;49037;41.898;25.004;2022-11-30T08:01:49;96770.81;;;6.07
62932;BMP280;49037;41.898;25.004;2022-11-30T08:04:15;96771.78;;;6.10
62932;BMP280;49037;41.898;25.004;2022-11-30T08:06:40;96759.97;;;6.11
62932;BMP280;49037;41.898;25.004;2022-11-30T08:09:05;96756.59;;;6.05
62932;BMP280;49037;41.898;25.004;2022-11-30T08:11:33;96759.72;;;6.09
62932;BMP280;49037;41.898;25.004;2022-11-30T08:14:00;96770.59;;;6.05
62932;BMP280;49037;41.898;25.004;2022-11-30T08:16:28;96776.34;;;6.04
62932;BMP280;49037;41.898;25.004;2022-11-30T08:18:55;96769.41;;;6.01
62932;BMP280;49037;41.898;25.004;2022-11-30T08:21:21;96766.50;;;6.04
62932;BMP280;49037;41.898;25.004;2022-11-30T08:23:49;96767.94;;;6.11
62932;BMP280;49037;41.898;25.004;2022-11-30T08:26:19;96775.59;;;6.19
62932;BMP280;49037;41.898;25.004;2022-11-30T08:28:46;96766.66;;;6.22
62932;BMP280;49037;41.898;25.004;2022-11-30T08:31:14;96771.44;;;6.35
62932;BMP280;49037;41.898;25.004;2022-11-30T08:33:40;96777.66;;;6.48
62932;BMP280;49037;41.898;25.004;2022-11-30T08:38:31;96760.53;;;6.44
62932;BMP280;49037;41.898;25.004;2022-11-30T08:40:56;96764.88;;;6.52
62932;BMP280;49037;41.898;25.004;2022-11-30T08:43:22;96770.13;;;6.58
62932;BMP280;49037;41.898;25.004;2022-11-30T08:45:47;96760.72;;;6.62
62932;BMP280;49037;41.898;25.004;2022-11-30T08:48:13;96764.53;;;6.66
62932;BMP280;49037;41.898;25.004;2022-11-30T08:50:38;96762.81;;;6.69
62932;BMP280;49037;41.898;25.004;2022-11-30T08:53:04;96757.03;;;6.70
62932;BMP280;49037;41.898;25.004;2022-11-30T08:55:29;96756.78;;;6.74
62932;BMP280;49037;41.898;25.004;2022-11-30T08:57:55;96762.53;;;6.78
62932;BMP280;49037;41.898;25.004;2022-11-30T09:00:20;96750.72;;;6.79
62932;BMP280;49037;41.898;25.004;2022-11-30T09:02:46;96754.09;;;6.79
62932;BMP280;49037;41.898;25.004;2022-11-30T09:05:11;96745.16;;;6.77
62932;BMP280;49037;41.898;25.004;2022-11-30T09:07:37;96747.38;;;6.73
62932;BMP280;49037;41.898;25.004;2022-11-30T09:10:03;96751.47;;;6.74
62932;BMP280;49037;41.898;25.004;2022-11-30T09:12:29;96745.97;;;6.66
62932;BMP280;49037;41.898;25.004;2022-11-30T09:14:54;96749.56;;;6.69
62932;BMP280;49037;41.898;25.004;2022-11-30T09:17:20;96750.81;;;6.63
62932;BMP280;49037;41.898;25.004;2022-11-30T09:19:45;96748.19;;;6.57
62932;BMP280;49037;41.898;25.004;2022-11-30T09:22:11;96742.16;;;6.57
62932;BMP280;49037;41.898;25.004;2022-11-30T09:24:36;96744.06;;;6.62
62932;BMP280;49037;41.898;25.004;2022-11-30T09:27:02;96743.75;;;6.70
62932;BMP280;49037;41.898;25.004;2022-11-30T09:29:27;96751.50;;;6.68
62932;BMP280;49037;41.898;25.004;2022-11-30T09:31:53;96747.91;;;6.66
62932;BMP280;49037;41.898;25.004;2022-11-30T09:34:18;96751.00;;;6.70
62932;BMP280;49037;41.898;25.004;2022-11-30T09:36:44;96756.53;;;6.77
62932;BMP280;49037;41.898;25.004;2022-11-30T09:39:10;96748.06;;;6.79
62932;BMP280;49037;41.898;25.004;2022-11-30T09:49:49;96733.00;;;6.92
62932;BMP280;49037;41.898;25.004;2022-11-30T09:52:25;96739.03;;;6.93
62932;BMP280;49037;41.898;25.004;2022-11-30T09:54:54;96726.03;;;6.89
62932;BMP280;49037;41.898;25.004;2022-11-30T09:57:52;96732.09;;;6.90
62932;BMP280;49037;41.898;25.004;2022-11-30T10:00:22;96737.81;;;6.94
62932;BMP280;49037;41.898;25.004;2022-11-30T10:02:50;96735.16;;;6.94
62932;BMP280;49037;41.898;25.004;2022-11-30T10:05:19;96732.97;;;6.98
62932;BMP280;49037;41.898;25.004;2022-11-30T10:13:29;96733.34;;;7.13
62932;BMP280;49037;41.898;25.004;2022-11-30T10:16:05;96733.34;;;7.13
62932;BMP280;49037;41.898;25.004;2022-11-30T10:27:15;96729.56;;;6.97
62932;BMP280;49037;41.898;25.004;2022-11-30T10:29:41;96733.72;;;6.93
62932;BMP280;49037;41.898;25.004;2022-11-30T10:32:30;96729.34;;;6.95
62932;BMP280;49037;41.898;25.004;2022-11-30T10:35:12;96739.94;;;7.01
62932;BMP280;49037;41.898;25.004;2022-11-30T10:37:40;96733.69;;;6.98
62932;BMP280;49037;41.898;25.004;2022-11-30T10:40:12;96737.72;;;7.05
62932;BMP280;49037;41.898;25.004;2022-11-30T10:42:45;96738.75;;;7.02
62932;BMP280;49037;41.898;25.004;2022-11-30T10:45:13;96736.31;;;7.04
62932;BMP280;49037;41.898;25.004;2022-11-30T10:47:45;96747.59;;;7.10
62932;BMP280;49037;41.898;25.004;2022-11-30T10:50:14;96733.63;;;7.04
62932;BMP280;49037;41.898;25.004;2022-11-30T10:52:46;96736.50;;;7.06
62932;BMP280;49037;41.898;25.004;2022-11-30T10:55:34;96733.59;;;7.09
62932;BMP280;49037;41.898;25.004;2022-11-30T10:58:11;96730.50;;;7.05
62932;BMP280;49037;41.898;25.004;2022-11-30T11:00:37;96726.59;;;7.12
62932;BMP280;49037;41.898;25.004;2022-11-30T11:03:21;96732.88;;;7.09
62932;BMP280;49037;41.898;25.004;2022-11-30T11:08:36;96732.41;;;7.05
62932;BMP280;49037;41.898;25.004;2022-11-30T11:11:01;96734.09;;;7.08
62932;BMP280;49037;41.898;25.004;2022-11-30T11:13:41;96727.81;;;7.11
62932;BMP280;49037;41.898;25.004;2022-11-30T11:16:11;96726.09;;;7.13
62932;BMP280;49037;41.898;25.004;2022-11-30T11:18:54;96724.09;;;7.19
62932;BMP280;49037;41.898;25.004;2022-11-30T11:21:22;96718.06;;;7.18
62932;BMP280;49037;41.898;25.004;2022-11-30T11:23:50;96719.47;;;7.25
62932;BMP280;49037;41.898;25.004;2022-11-30T11:26:25;96728.59;;;7.29
62932;BMP280;49037;41.898;25.004;2022-11-30T11:28:53;96717.72;;;7.27
62932;BMP280;49037;41.898;25.004;2022-11-30T11:31:35;96715.31;;;7.29
62932;BMP280;49037;41.898;25.004;2022-11-30T11:34:03;96715.38;;;7.24
62932;BMP280;49037;41.898;25.004;2022-11-30T11:36:31;96717.41;;;7.13
62932;BMP280;49037;41.898;25.004;2022-11-30T11:38:57;96699.13;;;7.04
62932;BMP280;49037;41.898;25.004;2022-11-30T11:41:32;96721.03;;;7.10
62932;BMP280;49037;41.898;25.004;2022-11-30T11:46:36;96713.81;;;7.10
62932;BMP280;49037;41.898;25.004;2022-11-30T11:49:04;96711.38;;;7.12
62932;BMP280;49037;41.898;25.004;2022-11-30T11:51:36;96714.44;;;7.16
62932;BMP280;49037;41.898;25.004;2022-11-30T11:57:08;96697.81;;;7.15
62932;BMP280;49037;41.898;25.004;2022-11-30T11:59:53;96706.22;;;7.19
62932;BMP280;49037;41.898;25.004;2022-11-30T12:02:50;96712.75;;;7.18
62932;BMP280;49037;41.898;25.004;2022-11-30T12:05:23;96714.19;;;7.19
62932;BMP280;49037;41.898;25.004;2022-11-30T12:08:04;96717.09;;;7.16
62932;BMP280;49037;41.898;25.004;2022-11-30T12:10:50;96711.38;;;7.12
62932;BMP280;49037;41.898;25.004;2022-11-30T12:13:22;96713.53;;;7.14
62932;BMP280;49037;41.898;25.004;2022-11-30T12:16:02;96715.22;;;7.11
62932;BMP280;49037;41.898;25.004;2022-11-30T12:18:40;96709.47;;;7.07
62932;BMP280;49037;41.898;25.004;2022-11-30T12:21:15;96717.66;;;7.09
62932;BMP280;49037;41.898;25.004;2022-11-30T12:24:11;96717.41;;;7.13
62932;BMP280;49037;41.898;25.004;2022-11-30T12:26:46;96716.94;;;7.09
62932;BMP280;49037;41.898;25.004;2022-11-30T12:45:34;96715.50;;;7.08
62932;BMP280;49037;41.898;25.004;2022-11-30T12:48:23;96718.38;;;7.10
62932;BMP280;49037;41.898;25.004;2022-11-30T12:53:33;96722.97;;;7.09
62932;BMP280;49037;41.898;25.004;2022-11-30T13:04:43;96734.22;;;7.20
62932;BMP280;49037;41.898;25.004;2022-11-30T13:07:24;96738.34;;;7.21
62932;BMP280;49037;41.898;25.004;2022-11-30T13:12:37;96738.50;;;7.29
62932;BMP280;49037;41.898;25.004;2022-11-30T13:15:15;96740.88;;;7.32
62932;BMP280;49037;41.898;25.004;2022-11-30T13:17:43;96746.66;;;7.36
62932;BMP280;49037;41.898;25.004;2022-11-30T13:20:32;96751.97;;;7.36
62932;BMP280;49037;41.898;25.004;2022-11-30T13:23:07;96747.66;;;7.33
62932;BMP280;49037;41.898;25.004;2022-11-30T13:31:24;96744.41;;;7.16
62932;BMP280;49037;41.898;25.004;2022-11-30T13:36:38;96750.16;;;7.20
62932;BMP280;49037;41.898;25.004;2022-11-30T13:41:37;96750.88;;;7.21
62932;BMP280;49037;41.898;25.004;2022-11-30T13:44:02;96741.00;;;7.21
62932;BMP280;49037;41.898;25.004;2022-11-30T13:46:29;96742.91;;;7.26
62932;BMP280;49037;41.898;25.004;2022-11-30T13:51:41;96745.56;;;7.26
62932;BMP280;49037;41.898;25.004;2022-11-30T13:54:35;96738.56;;;7.23
62932;BMP280;49037;41.898;25.004;2022-11-30T13:57:01;96742.69;;;7.19
62932;BMP280;49037;41.898;25.004;2022-11-30T14:02:48;96742.25;;;7.15
62932;BMP280;49037;41.898;25.004;2022-11-30T14:04:48;96740.28;;;7.15
62932;BMP280;49037;41.898;25.004;2022-11-30T14:07:33;96742.91;;;7.21
62932;BMP280;49037;41.898;25.004;2022-11-30T14:09:59;96747.78;;;7.17
62932;BMP280;49037;41.898;25.004;2022-11-30T14:15:24;96739.81;;;7.17
62932;BMP280;49037;41.898;25.004;2022-11-30T14:17:47;96740.03;;;7.19
62932;BMP280;49037;41.898;25.004;2022-11-30T14:20:16;96734.50;;;7.17
62932;BMP280;49037;41.898;25.004;2022-11-30T14:22:43;96731.63;;;7.15
62932;BMP280;49037;41.898;25.004;2022-11-30T14:25:14;96741.97;;;7.18
62932;BMP280;49037;41.898;25.004;2022-11-30T14:27:41;96735.25;;;7.12
62932;BMP280;49037;41.898;25.004;2022-11-30T14:30:15;96749.50;;;7.15
62932;BMP280;49037;41.898;25.004;2022-11-30T14:32:44;96749.50;;;7.15
62932;BMP280;49037;41.898;25.004;2022-11-30T14:35:16;96745.41;;;7.14
62932;BMP280;49037;41.898;25.004;2022-11-30T14:37:58;96753.56;;;7.15
62932;BMP280;49037;41.898;25.004;2022-11-30T14:40:26;96746.13;;;7.14
62932;BMP280;49037;41.898;25.004;2022-11-30T14:42:59;96743.50;;;7.09
62932;BMP280;49037;41.898;25.004;2022-11-30T14:45:30;96751.44;;;7.09
62932;BMP280;49037;41.898;25.004;2022-11-30T14:50:31;96750.53;;;7.06
62932;BMP280;49037;41.898;25.004;2022-11-30T15:00:19;96743.22;;;7.12
62932;BMP280;49037;41.898;25.004;2022-11-30T15:02:45;96750.00;;;7.13
62932;BMP280;49037;41.898;25.004;2022-11-30T15:05:23;96750.44;;;7.17
62932;BMP280;49037;41.898;25.004;2022-11-30T15:07:51;96746.13;;;7.14
62932;BMP280;49037;41.898;25.004;2022-11-30T15:10:25;96755.56;;;7.10
62932;BMP280;49037;41.898;25.004;2022-11-30T15:12:52;96754.09;;;7.09
62932;BMP280;49037;41.898;25.004;2022-11-30T15:15:21;96749.78;;;7.06
62932;BMP280;49037;41.898;25.004;2022-11-30T15:17:54;96746.22;;;7.03
62932;BMP280;49037;41.898;25.004;2022-11-30T15:22:58;96763.31;;;7.08
62932;BMP280;49037;41.898;25.004;2022-11-30T15:25:36;96759.97;;;7.02
62932;BMP280;49037;41.898;25.004;2022-11-30T15:28:04;96760.72;;;6.97
62932;BMP280;49037;41.898;25.004;2022-11-30T15:30:34;96750.16;;;6.91
62932;BMP280;49037;41.898;25.004;2022-11-30T15:33:00;96763.84;;;7.01
62932;BMP280;49037;41.898;25.004;2022-11-30T15:35:26;96771.31;;;7.02
62932;BMP280;49037;41.898;25.004;2022-11-30T15:37:52;96769.16;;;7.01
62932;BMP280;49037;41.898;25.004;2022-11-30T15:40:33;96765.81;;;6.95
62932;BMP280;49037;41.898;25.004;2022-11-30T15:42:59;96763.44;;;6.91
62932;BMP280;49037;41.898;25.004;2022-11-30T15:45:32;96762.03;;;6.85
62932;BMP280;49037;41.898;25.004;2022-11-30T15:48:01;96771.19;;;6.84
62932;BMP280;49037;41.898;25.004;2022-11-30T15:52:57;96775.59;;;6.76
62932;BMP280;49037;41.898;25.004;2022-11-30T15:55:43;96776.56;;;6.73
62932;BMP280;49037;41.898;25.004;2022-11-30T15:58:30;96784.50;;;6.73
62932;BMP280;49037;41.898;25.004;2022-11-30T16:03:46;96785.50;;;6.70
62932;BMP280;49037;41.898;25.004;2022-11-30T16:06:22;96779.25;;;6.67
62932;BMP280;49037;41.898;25.004;2022-11-30T16:08:49;96772.72;;;6.68
62932;BMP280;49037;41.898;25.004;2022-11-30T16:11:15;96779.03;;;6.60
62932;BMP280;49037;41.898;25.004;2022-11-30T16:13:44;96786.28;;;6.60
62932;BMP280;49037;41.898;25.004;2022-11-30T16:16:24;96777.13;;;6.55
62932;BMP280;49037;41.898;25.004;2022-11-30T16:18:52;96788.19;;;6.59
62932;BMP280;49037;41.898;25.004;2022-11-30T16:21:18;96791.59;;;6.60
62932;BMP280;49037;41.898;25.004;2022-11-30T16:23:45;96785.56;;;6.59